Pagrindinis puslapis
METAR-TAF:

METAR-TAF

Oro uostai :

Kiana, Aliaska, Jungtinės Amerikos Valstijos

platuma: 66-59N, ilguma: 160-26W, Aukštis: 46 m

Dabartinis oras

Ataskaita buvo paskelbta 23 minutes, ne 08:56 UTC
Vėjas 4 kt iš Rytų
Temperatūra 7°C
Drėgmė 70%
Slėgis 1005 hPa
Matomumas: 16.1 km
Giedras dangus

METAR: PAIK 160856Z AUTO 09004KT 10SM CLR 07/02 A2969 RMK AO2 SLP055 T00670017 401440061 51015 TSNO

Laikas: 01:19 (09:19 UTC)


TAF: trūkstamas

Orai ataskaitas ir orų prognozės (METAR, TAF).

turimą stotys yra geltonos ir raudonos taškus žemėlapyje.

Perkelti pele per norėdami pamatyti stoties vardą.

Tada spustelėkite, norėdami matyti oro stebėjimo ir prognozės.

Norėdami pakeisti žemėlapį: spustelėkite ant žalios mygtukų su juodo kryžiaus žemyn,; žalią mygtuką su brūkšneliu, jei norite nutolinti; arba žalių rodyklių gretimoms žemėlapius.


METAR-TAF: